Flight Track Log - Related Links

Times and Time Zones

All times are in EDT time to prevent confusion due to time zone crossing. See the EJA964 flight status page for this flight to view local times or setup timezone preferences in your user account.

Time Position Orientation Groundspeed Altitude Reporting Facility
EDT Latitude Longitude Course Direction KTS MPH feet Rate Location/Type
Wed 01:40:51 PM 38.9833 -77.5167 232° Southwest 243 280 3,300  Level Potomac TRACON
Wed 01:41:51 PM 38.9333 -77.6000 218° Southwest 266 306 4,900 850 Climbing Potomac TRACON
Wed 01:42:51 PM 38.8833 -77.6500 226° Southwest 251 289 5,000 1,750 Climbing Potomac TRACON
Wed 01:43:51 PM 38.8333 -77.7167 256° West 240 276 8,400 3,435 Climbing Potomac TRACON
Wed 01:44:55 PM 38.8158 -77.8056 288° West 228 262 12,100 3,339 Climbing Washington Center
Wed 01:45:55 PM 38.8353 -77.8836 294° West 227 261 15,300 2,182 Climbing Washington Center
Wed 01:46:56 PM 38.8689 -77.9806 296° West 255 293 16,500 1,623 Climbing Washington Center
Wed 01:47:57 PM 38.9106 -78.0886 286° West 302 348 18,600 2,313 Climbing Washington Center
Wed 01:49:55 PM 38.9636 -78.3228 272° West 344 396 23,400 2,413 Climbing Washington Center
Wed 01:50:56 PM 38.9667 -78.4589 275° West 360 414 25,800 2,410 Climbing Washington Center
Wed 01:51:57 PM 38.9761 -78.5903 275° West 375 432 28,300 2,380 Climbing Washington Center
Wed 01:52:57 PM 38.9850 -78.7294 275° West 388 447 30,600 1,373 Climbing Washington Center
Wed 01:53:55 PM 38.9939 -78.8661 275° West 388 447 31,000 202 Climbing Washington Center
Wed 01:54:56 PM 39.0025 -79.0053 275° West 388 447 31,000 595 Level Washington Center
Wed 01:55:56 PM 39.0125 -79.1633 274° West 419 482 32,200 1,450 Climbing Washington Center
Wed 01:56:56 PM 39.0222 -79.3242 275° West 443 510 33,900 1,785 Climbing Washington Center
Wed 01:57:57 PM 39.0339 -79.4853 278° West 454 522 35,800 1,664 Climbing Washington Center
Wed 01:58:55 PM 39.0500 -79.6303 275° West 459 528 37,200 1,424 Climbing Washington Center
Wed 01:59:55 PM 39.0611 -79.7889 274° West 459 528 38,600 1,339 Climbing Washington Center
Wed 02:00:56 PM 39.0700 -79.9469 274° West 459 528 39,900 387 Climbing Washington Center
Wed 02:03:32 PM 39.0933 -80.3972 278° West 467 537 40,000 28 Climbing Indianapolis Center
Wed 02:04:34 PM 39.1122 -80.5622 300° West 467 537 40,000  Level Indianapolis Center
Wed 02:05:44 PM 39.1919 -80.7439 299° West 467 537 40,000  Level Indianapolis Center
Wed 02:06:44 PM 39.2581 -80.8967 300° West 473 544 40,000  Level Indianapolis Center
Wed 02:07:44 PM 39.3239 -81.0472 298° West 485 558 40,000  Level Indianapolis Center
Wed 02:08:44 PM 39.3875 -81.2008 299° West 485 558 40,000  Level Indianapolis Center
Wed 02:09:44 PM 39.4531 -81.3547 299° West 485 558 40,000  Level Indianapolis Center
Wed 02:10:44 PM 39.5183 -81.5061 299° West 485 558 40,000  Level Indianapolis Center
Wed 02:11:44 PM 39.5833 -81.6578 298° West 485 558 40,000  Level Indianapolis Center
Wed 02:12:44 PM 39.6461 -81.8125 300° West 485 558 40,000  Level Indianapolis Center
Wed 02:13:44 PM 39.7000 -81.9353 297° West 485 558 40,000  Level Indianapolis Center
Wed 02:14:44 PM 39.7647 -82.1039 300° West 485 558 40,000  Level Indianapolis Center
Wed 02:15:44 PM 39.8269 -82.2458 297° West 475 547 40,000  Level Indianapolis Center
Wed 02:16:44 PM 39.8783 -82.3803 299° West 429 494 40,000  Level Indianapolis Center
Wed 02:17:44 PM 39.9358 -82.5147 298° West 424 488 40,000  Level Indianapolis Center
Wed 02:18:44 PM 39.9911 -82.6492 298° West 424 488 40,000  Level Indianapolis Center
Wed 02:19:44 PM 40.0464 -82.7869 297° West 429 494 40,000  Level Indianapolis Center
Wed 02:20:44 PM 40.1056 -82.9383 299° West 429 494 40,000  Level Indianapolis Center
Wed 02:21:44 PM 40.1625 -83.0736 296° West 429 494 40,000  Level Indianapolis Center
Wed 02:22:44 PM 40.2153 -83.2144 298° West 429 494 40,000  Level Indianapolis Center
Wed 02:23:44 PM 40.2697 -83.3503 298° West 429 494 40,000 -50 Level Indianapolis Center
Wed 02:24:44 PM 40.3239 -83.4861 298° West 429 494 39,900 -250 Descending Indianapolis Center
Wed 02:25:44 PM 40.3803 -83.6250 297° West 422 486 39,500 -450 Descending Indianapolis Center
Wed 02:26:44 PM 40.4342 -83.7642 297° West 429 494 39,000 -550 Descending Indianapolis Center
Wed 02:27:44 PM 40.4839 -83.8953 298° West 424 488 38,400 -1,250 Descending Indianapolis Center
Wed 02:28:44 PM 40.5378 -84.0267 296° West 410 472 36,500 -2,200 Descending Indianapolis Center
Wed 02:29:44 PM 40.5850 -84.1556 297° West 398 458 34,000 -2,021 Descending Indianapolis Center
Wed 02:31:57 PM 40.7028 -84.4575 297° West 420 483 30,000 -1,244 Descending Chicago Center
Wed 02:32:57 PM 40.7544 -84.5936 297° West 425 489 30,000  Level Chicago Center
Wed 02:33:57 PM 40.8083 -84.7353 296° West 425 489 30,000  Level Chicago Center
Wed 02:34:57 PM 40.8597 -84.8744 296° West 425 489 30,000 -150 Level Chicago Center
Wed 02:35:57 PM 40.9131 -85.0164 297° West 431 496 29,700 -800 Descending Chicago Center
Wed 02:36:57 PM 40.9661 -85.1531 307° West 431 496 28,400 -1,300 Descending Chicago Center
Wed 02:37:57 PM 41.0286 -85.2647 313° West 424 488 27,100 -1,261 Descending Chicago Center
Wed 02:38:56 PM 41.0922 -85.3544 310° West 424 488 25,900 -1,500 Descending Chicago Center
Wed 02:39:57 PM 41.1783 -85.4928 311° West 419 482 24,100 -1,884 Descending Chicago Center
Wed 02:40:57 PM 41.2531 -85.6072 311° West 410 472 22,100 -1,850 Descending Chicago Center
Wed 02:41:57 PM 41.3278 -85.7219 304° West 410 472 20,400 -1,900 Descending Chicago Center
Wed 02:42:57 PM 41.3922 -85.8511 288° West 410 472 18,300 -2,100 Descending Chicago Center
Wed 02:43:57 PM 41.4233 -85.9822 288° West 381 438 16,200 -2,200 Descending Chicago Center
Wed 02:44:57 PM 41.4542 -86.1111 289° West 368 423 13,900 -2,150 Descending Chicago Center
Wed 02:45:57 PM 41.4869 -86.2369 287° West 362 417 11,900 -1,900 Descending Chicago Center
Wed 02:46:57 PM 41.5150 -86.3575 275° West 352 405 10,100 -950 Descending Chicago Center
Wed 02:47:57 PM 41.5225 -86.4819 271° West 346 398 10,000 -50 Descending Chicago Center
Wed 02:48:57 PM 41.5233 -86.6069 268° West 346 398 10,000  Level Chicago Center
Wed 02:49:57 PM 41.5214 -86.7014 270° West 319 367 10,000 -450 Level Chicago Center
Wed 02:50:57 PM 41.5217 -86.8011 272° West 290 334 9,100 -1,300 Descending Chicago Center
Wed 02:51:57 PM 41.5236 -86.8953 265° West 267 307 7,400 -1,500 Descending Chicago Center
Wed 02:52:57 PM 41.5172 -86.9844 270° West 253 291 6,100 -545 Descending Chicago Center
Wed 02:54:42 PM 41.5167 -87.1667 270° West 258 297 5,900 -70 Descending Chicago TRACON
Wed 02:55:48 PM 41.5167 -87.2667 285° West 251 289 5,900  Level Chicago TRACON
Wed 02:56:48 PM 41.5333 -87.3500 298° West 260 299 5,900 -650 Level Chicago TRACON
Wed 02:57:48 PM 41.5667 -87.4333 298° West 246 283 4,600 -950 Descending Chicago TRACON
Wed 02:58:48 PM 41.6000 -87.5167 323° Northwest 263 303 4,000 -350 Descending Chicago TRACON
Wed 02:59:48 PM 41.6500 -87.5667 315° West 227 261 3,900 -450 Descending Chicago TRACON
Wed 03:00:48 PM 41.7000 -87.6333 312° West 221 254 3,100 -1,050 Descending Chicago TRACON
Wed 03:01:48 PM 41.7333 -87.6833 346° North 226 260 1,800 -650 Descending Chicago TRACON
Wed 03:02:48 PM 41.7833 -87.7000 304° West 180 207 1,800 -450 Level Chicago TRACON
Wed 03:03:48 PM 41.8000 -87.7333 304° West 132 152 900 -900 Descending Chicago TRACON

Login

Don't have an account? Register now (free) for customized features, flight alerts, and more!